Time;durP1;ratioP1;P1;durP2;ratioP2;P2;SDS_P1;SDS_P2;PMS_P1;PMS_P2;Temp;Humidity;BMP_temperature;BMP_pressure;BME280_temperature;BME280_humidity;BME280_pressure;Samples;Min_cycle;Max_cycle;Signal;HPM_P1;HPM_P2
2023/12/16 00:02:08;;;;;;;13.10;7.60;;;;;;;;;;2619076;47;20435;-84
2023/12/16 00:04:35;;;;;;;15.70;8.10;;;;;;;;;;2620470;54;20420;-84
2023/12/16 00:07:01;;;;;;;20.10;9.00;;;;;;;;;;2619044;54;20402;-84
2023/12/16 00:09:27;;;;;;;11.30;7.10;;;;;;;;;;2615703;54;20417;-85
2023/12/16 00:11:53;;;;;;;11.47;7.10;;;;;;;;;;2612833;54;20424;-84
2023/12/16 00:14:19;;;;;;;15.00;7.87;;;;;;;;;;2613832;54;20917;-85
2023/12/16 00:16:45;;;;;;;19.50;8.37;;;;;;;;;;2614137;54;20422;-85
2023/12/16 00:19:11;;;;;;;17.77;8.37;;;;;;;;;;2613052;54;20399;-83
2023/12/16 00:21:38;;;;;;;11.00;7.33;;;;;;;;;;2612376;54;20442;-85
2023/12/16 00:24:06;;;;;;;16.90;8.37;;;;;;;;;;2613279;31;20914;-85
2023/12/16 00:26:32;;;;;;;14.47;9.30;;;;;;;;;;2614060;54;20544;-86
2023/12/16 00:28:59;;;;;;;17.50;9.60;;;;;;;;;;2614575;47;20470;-85
2023/12/16 00:31:25;;;;;;;15.00;8.43;;;;;;;;;;2614052;54;21019;-86
2023/12/16 00:33:51;;;;;;;14.13;8.40;;;;;;;;;;2613689;54;20942;-85
2023/12/16 00:36:17;;;;;;;18.53;8.30;;;;;;;;;;2613432;39;20700;-81
2023/12/16 00:38:43;;;;;;;24.03;10.07;;;;;;;;;;2612842;47;20427;-81
2023/12/16 00:41:09;;;;;;;17.50;10.40;;;;;;;;;;2612168;47;20497;-81
2023/12/16 00:43:35;;;;;;;19.50;9.37;;;;;;;;;;2614218;39;20718;-81
2023/12/16 00:46:01;;;;;;;21.47;9.03;;;;;;;;;;2614171;39;20879;-81
2023/12/16 00:48:27;;;;;;;16.10;8.67;;;;;;;;;;2613266;54;21009;-81
2023/12/16 00:50:54;;;;;;;21.70;9.73;;;;;;;;;;2612258;54;20426;-82
2023/12/16 00:53:20;;;;;;;17.43;8.83;;;;;;;;;;2611893;54;20483;-81
2023/12/16 00:55:46;;;;;;;13.43;8.57;;;;;;;;;;2614145;54;20410;-81
2023/12/16 00:58:12;;;;;;;17.37;8.70;;;;;;;;;;2612217;54;20420;-76
2023/12/16 01:00:38;;;;;;;24.93;10.20;;;;;;;;;;2611865;54;20430;-76
2023/12/16 01:03:04;;;;;;;14.40;6.67;;;;;;;;;;2613298;31;20885;-75
2023/12/16 01:05:31;;;;;;;13.30;7.30;;;;;;;;;;2612917;54;20972;-75
2023/12/16 01:07:57;;;;;;;12.87;8.73;;;;;;;;;;2612705;54;20404;-76
2023/12/16 01:10:23;;;;;;;12.20;8.07;;;;;;;;;;2612753;54;20401;-76
2023/12/16 01:12:49;;;;;;;21.73;9.70;;;;;;;;;;2613183;54;20431;-76
2023/12/16 01:15:15;;;;;;;15.27;7.83;;;;;;;;;;2613464;54;20473;-76
2023/12/16 01:17:41;;;;;;;21.57;8.43;;;;;;;;;;2612319;54;20506;-77
2023/12/16 01:20:08;;;;;;;15.80;8.87;;;;;;;;;;2611147;54;20444;-78
2023/12/16 01:22:34;;;;;;;14.57;9.40;;;;;;;;;;2613248;39;20905;-77
2023/12/16 01:25:00;;;;;;;20.40;9.27;;;;;;;;;;2613663;46;21358;-77
2023/12/16 01:27:26;;;;;;;17.57;10.27;;;;;;;;;;2610946;54;20433;-77
2023/12/16 01:29:52;;;;;;;12.90;7.50;;;;;;;;;;2613448;54;20425;-76
2023/12/16 01:32:18;;;;;;;20.20;10.43;;;;;;;;;;2613662;54;20424;-77
2023/12/16 01:34:44;;;;;;;16.60;8.03;;;;;;;;;;2611828;54;20940;-77
2023/12/16 01:37:10;;;;;;;19.57;8.70;;;;;;;;;;2613061;47;20450;-77
2023/12/16 01:39:36;;;;;;;17.57;8.70;;;;;;;;;;2612390;54;20408;-76
2023/12/16 01:42:02;;;;;;;18.60;9.77;;;;;;;;;;2612850;54;20438;-76
2023/12/16 01:44:29;;;;;;;20.63;8.27;;;;;;;;;;2613341;54;20405;-76
2023/12/16 01:46:55;;;;;;;15.30;9.60;;;;;;;;;;2611975;54;20391;-82
2023/12/16 01:49:21;;;;;;;19.27;9.00;;;;;;;;;;2611958;39;20506;-82
2023/12/16 01:51:47;;;;;;;15.30;8.53;;;;;;;;;;2612539;39;20827;-82
2023/12/16 01:54:13;;;;;;;16.23;8.70;;;;;;;;;;2613532;54;20448;-82
2023/12/16 01:56:40;;;;;;;15.20;7.23;;;;;;;;;;2613268;54;20970;-82
2023/12/16 01:59:06;;;;;;;21.43;8.57;;;;;;;;;;2615180;54;20425;-82
2023/12/16 02:01:32;;;;;;;15.33;9.27;;;;;;;;;;2614923;39;20850;-82
2023/12/16 02:03:59;;;;;;;19.57;8.50;;;;;;;;;;2613900;54;20428;-82
2023/12/16 02:06:26;;;;;;;12.57;8.00;;;;;;;;;;2612331;54;20408;-82
2023/12/16 02:08:52;;;;;;;24.13;8.20;;;;;;;;;;2610871;54;20983;-81
2023/12/16 02:11:18;;;;;;;16.27;8.13;;;;;;;;;;2611145;47;20431;-81
2023/12/16 02:13:44;;;;;;;18.60;8.00;;;;;;;;;;2613238;47;20463;-82
2023/12/16 02:16:11;;;;;;;14.60;7.83;;;;;;;;;;2613495;54;20434;-83
2023/12/16 02:18:37;;;;;;;16.03;9.37;;;;;;;;;;2612026;54;21065;-84
2023/12/16 02:21:04;;;;;;;14.30;7.63;;;;;;;;;;2613455;54;20446;-82
2023/12/16 02:23:30;;;;;;;14.50;8.33;;;;;;;;;;2614101;39;20859;-82
2023/12/16 02:25:56;;;;;;;12.33;6.50;;;;;;;;;;2612253;54;20444;-82
2023/12/16 02:28:22;;;;;;;12.97;6.77;;;;;;;;;;2613841;54;20422;-83
2023/12/16 02:30:48;;;;;;;11.60;6.27;;;;;;;;;;2614046;54;20423;-82
2023/12/16 02:33:17;;;;;;;11.20;7.40;;;;;;;;;;2614260;54;20417;-82
2023/12/16 02:35:43;;;;;;;17.67;8.23;;;;;;;;;;2613852;54;20431;-83
2023/12/16 02:38:09;;;;;;;23.90;7.30;;;;;;;;;;2614068;39;20854;-82
2023/12/16 02:40:41;;;;;;;22.77;9.20;;;;;;;;;;2613990;54;20427;-83
2023/12/16 02:43:07;;;;;;;18.70;8.00;;;;;;;;;;2613237;47;20471;-82
2023/12/16 02:45:33;;;;;;;11.13;5.77;;;;;;;;;;2613916;54;20396;-82
2023/12/16 02:47:59;;;;;;;11.00;6.57;;;;;;;;;;2613635;54;20431;-82
2023/12/16 02:50:25;;;;;;;13.90;8.40;;;;;;;;;;2613151;54;20417;-83
2023/12/16 02:52:51;;;;;;;8.50;5.87;;;;;;;;;;2613791;54;20961;-80
2023/12/16 02:55:18;;;;;;;9.17;7.10;;;;;;;;;;2614761;54;20404;-81
2023/12/16 02:57:44;;;;;;;13.50;5.93;;;;;;;;;;2612251;54;20545;-72
2023/12/16 03:00:10;;;;;;;12.83;6.20;;;;;;;;;;2611972;39;20659;-71
2023/12/16 03:02:36;;;;;;;15.67;6.93;;;;;;;;;;2612830;47;20511;-71
2023/12/16 03:05:03;;;;;;;11.93;6.53;;;;;;;;;;2611887;54;20515;-71
2023/12/16 03:07:29;;;;;;;11.77;6.10;;;;;;;;;;2612051;47;20429;-72
2023/12/16 03:09:55;;;;;;;10.50;5.90;;;;;;;;;;2609629;49;20522;-72
2023/12/16 03:12:21;;;;;;;11.10;6.27;;;;;;;;;;2611619;47;20878;-72
2023/12/16 03:14:47;;;;;;;10.93;6.20;;;;;;;;;;2611178;54;20983;-71
2023/12/16 03:17:15;;;;;;;10.27;6.20;;;;;;;;;;2611820;47;20459;-72
2023/12/16 03:19:41;;;;;;;7.80;5.43;;;;;;;;;;2612900;54;20415;-73
2023/12/16 03:22:08;;;;;;;13.33;5.90;;;;;;;;;;2612989;54;20421;-72
2023/12/16 03:24:34;;;;;;;5.80;4.77;;;;;;;;;;2612577;54;20439;-72
2023/12/16 03:27:00;;;;;;;8.60;5.80;;;;;;;;;;2613047;39;20784;-72
2023/12/16 03:29:26;;;;;;;13.77;6.33;;;;;;;;;;2614327;39;20867;-72
2023/12/16 03:31:53;;;;;;;11.23;4.50;;;;;;;;;;2611799;54;20454;-73
2023/12/16 03:34:19;;;;;;;10.80;6.00;;;;;;;;;;2612437;54;20408;-72
2023/12/16 03:36:45;;;;;;;9.30;5.40;;;;;;;;;;2612230;39;20816;-71
2023/12/16 03:39:12;;;;;;;8.83;4.70;;;;;;;;;;2611901;54;20962;-70
2023/12/16 03:41:38;;;;;;;5.63;3.30;;;;;;;;;;2611234;54;20427;-72
2023/12/16 03:44:04;;;;;;;13.80;4.63;;;;;;;;;;2613269;54;20414;-71
2023/12/16 03:46:30;;;;;;;9.50;5.60;;;;;;;;;;2612621;47;20421;-72
2023/12/16 03:48:56;;;;;;;7.37;3.63;;;;;;;;;;2612670;46;20441;-71
2023/12/16 03:51:23;;;;;;;8.20;5.23;;;;;;;;;;2611020;54;20945;-72
2023/12/16 03:53:49;;;;;;;12.53;5.00;;;;;;;;;;2611477;54;20422;-72
2023/12/16 03:56:16;;;;;;;20.90;5.67;;;;;;;;;;2612608;54;20530;-71
2023/12/16 03:58:42;;;;;;;19.43;5.67;;;;;;;;;;2612583;54;20488;-71
2023/12/16 04:01:13;;;;;;;11.30;4.87;;;;;;;;;;2612085;54;20545;-72
2023/12/16 04:03:40;;;;;;;9.53;6.33;;;;;;;;;;2612328;54;20539;-71
2023/12/16 04:06:16;;;;;;;12.60;4.93;;;;;;;;;;2612526;54;20421;-71
2023/12/16 04:08:42;;;;;;;12.03;5.27;;;;;;;;;;2613220;54;20517;-77
2023/12/16 04:11:08;;;;;;;10.73;4.60;;;;;;;;;;2612163;54;20444;-77
2023/12/16 04:13:34;;;;;;;12.73;5.57;;;;;;;;;;2610979;54;20479;-78
2023/12/16 04:16:01;;;;;;;10.77;6.00;;;;;;;;;;2612926;54;20494;-77
2023/12/16 04:18:27;;;;;;;11.37;5.10;;;;;;;;;;2612160;54;20453;-78
2023/12/16 04:20:53;;;;;;;9.57;5.27;;;;;;;;;;2611664;54;21407;-78
2023/12/16 04:23:19;;;;;;;8.80;5.43;;;;;;;;;;2613191;54;20452;-78
2023/12/16 04:25:45;;;;;;;10.53;4.70;;;;;;;;;;2612998;39;21180;-78
2023/12/16 04:28:11;;;;;;;6.40;4.70;;;;;;;;;;2612392;54;20491;-75
2023/12/16 04:30:37;;;;;;;15.63;5.47;;;;;;;;;;2612636;54;20409;-75
2023/12/16 04:33:03;;;;;;;12.60;5.60;;;;;;;;;;2613712;54;20434;-77
2023/12/16 04:35:29;;;;;;;9.73;5.40;;;;;;;;;;2613801;47;20549;-75
2023/12/16 04:37:55;;;;;;;9.97;5.87;;;;;;;;;;2613602;54;20427;-76
2023/12/16 04:40:21;;;;;;;9.03;5.50;;;;;;;;;;2612693;47;20431;-76
2023/12/16 04:42:48;;;;;;;7.97;4.73;;;;;;;;;;2613306;54;20434;-76
2023/12/16 04:45:14;;;;;;;9.47;5.87;;;;;;;;;;2613310;54;20988;-76
2023/12/16 04:47:40;;;;;;;11.00;4.77;;;;;;;;;;2612011;54;20403;-76
2023/12/16 04:50:06;;;;;;;20.00;6.07;;;;;;;;;;2613418;46;20445;-76
2023/12/16 04:52:33;;;;;;;10.20;5.43;;;;;;;;;;2613120;39;20939;-75
2023/12/16 04:54:59;;;;;;;11.33;5.80;;;;;;;;;;2613498;54;20406;-76
2023/12/16 04:57:25;;;;;;;12.73;5.73;;;;;;;;;;2613219;54;20427;-76
2023/12/16 04:59:51;;;;;;;13.30;5.43;;;;;;;;;;2613314;39;20875;-77
2023/12/16 05:02:17;;;;;;;7.20;5.13;;;;;;;;;;2612827;54;20424;-77
2023/12/16 05:04:43;;;;;;;11.20;6.00;;;;;;;;;;2613221;54;20954;-76
2023/12/16 05:07:09;;;;;;;11.43;5.20;;;;;;;;;;2612558;54;20424;-77
2023/12/16 05:09:35;;;;;;;9.57;5.47;;;;;;;;;;2611127;54;20517;-76
2023/12/16 05:12:01;;;;;;;23.03;7.07;;;;;;;;;;2613791;54;20450;-76
2023/12/16 05:14:27;;;;;;;10.80;6.20;;;;;;;;;;2613993;54;20382;-76
2023/12/16 05:16:54;;;;;;;13.63;5.77;;;;;;;;;;2612437;39;20798;-75
2023/12/16 05:19:20;;;;;;;10.93;5.97;;;;;;;;;;2611990;46;20475;-76
2023/12/16 05:21:46;;;;;;;9.77;4.27;;;;;;;;;;2611465;54;20420;-75
2023/12/16 05:24:12;;;;;;;9.20;5.90;;;;;;;;;;2611847;54;20415;-75
2023/12/16 05:26:38;;;;;;;10.27;4.77;;;;;;;;;;2611826;54;20408;-74
2023/12/16 05:29:04;;;;;;;9.70;5.13;;;;;;;;;;2612854;54;20539;-76
2023/12/16 05:31:30;;;;;;;10.83;5.20;;;;;;;;;;2614200;39;20819;-75
2023/12/16 05:33:56;;;;;;;8.77;5.77;;;;;;;;;;2612435;47;20444;-75
2023/12/16 05:36:22;;;;;;;11.30;5.70;;;;;;;;;;2612653;54;20978;-72
2023/12/16 05:38:48;;;;;;;8.63;6.00;;;;;;;;;;2612860;54;20531;-71
2023/12/16 05:41:14;;;;;;;10.27;5.93;;;;;;;;;;2611698;54;20395;-71
2023/12/16 05:43:41;;;;;;;14.43;6.40;;;;;;;;;;2613097;54;20450;-71
2023/12/16 05:46:07;;;;;;;12.17;6.23;;;;;;;;;;2613073;54;20423;-71
2023/12/16 05:48:35;;;;;;;12.90;6.00;;;;;;;;;;2611718;54;20401;-71
2023/12/16 05:51:01;;;;;;;7.53;5.67;;;;;;;;;;2611579;54;20414;-72
2023/12/16 05:53:27;;;;;;;10.13;5.47;;;;;;;;;;2612678;54;20430;-73
2023/12/16 05:55:53;;;;;;;21.37;5.93;;;;;;;;;;2611030;54;20435;-73
2023/12/16 05:58:19;;;;;;;9.80;5.77;;;;;;;;;;2612711;54;20491;-72
2023/12/16 06:00:46;;;;;;;8.63;6.27;;;;;;;;;;2611880;54;20494;-71
2023/12/16 06:03:12;;;;;;;11.37;6.20;;;;;;;;;;2611944;54;20420;-72
2023/12/16 06:05:38;;;;;;;15.43;6.00;;;;;;;;;;2612483;54;20950;-72
2023/12/16 06:08:04;;;;;;;9.47;6.23;;;;;;;;;;2611991;54;20402;-72
2023/12/16 06:10:30;;;;;;;12.80;6.00;;;;;;;;;;2610554;54;20440;-72
2023/12/16 06:12:56;;;;;;;18.00;6.27;;;;;;;;;;2613659;39;20875;-72
2023/12/16 06:15:22;;;;;;;9.17;5.80;;;;;;;;;;2613090;54;20468;-71
2023/12/16 06:17:48;;;;;;;9.87;5.20;;;;;;;;;;2612328;54;20443;-72
2023/12/16 06:20:14;;;;;;;7.90;5.50;;;;;;;;;;2612598;47;20565;-72
2023/12/16 06:22:40;;;;;;;8.70;5.40;;;;;;;;;;2611621;54;20418;-73
2023/12/16 06:25:06;;;;;;;15.83;5.80;;;;;;;;;;2611177;54;20432;-72
2023/12/16 06:27:32;;;;;;;11.10;5.13;;;;;;;;;;2612358;54;20515;-73
2023/12/16 06:29:58;;;;;;;13.60;5.07;;;;;;;;;;2613982;54;20401;-73
2023/12/16 06:32:24;;;;;;;9.57;6.50;;;;;;;;;;2611807;54;20426;-75
2023/12/16 06:34:50;;;;;;;9.40;5.47;;;;;;;;;;2612770;54;20512;-73
2023/12/16 06:37:16;;;;;;;9.47;5.10;;;;;;;;;;2611187;47;20425;-74
2023/12/16 06:39:42;;;;;;;10.27;5.90;;;;;;;;;;2611616;54;21203;-74
2023/12/16 06:42:08;;;;;;;6.60;5.60;;;;;;;;;;2611700;54;20428;-73
2023/12/16 06:44:36;;;;;;;11.27;5.70;;;;;;;;;;2612357;54;20430;-73
2023/12/16 06:47:02;;;;;;;6.60;4.97;;;;;;;;;;2611968;54;21223;-71
2023/12/16 06:49:28;;;;;;;9.50;5.40;;;;;;;;;;2613360;31;20881;-71
2023/12/16 06:51:54;;;;;;;9.03;5.17;;;;;;;;;;2610931;54;20965;-72
2023/12/16 06:54:20;;;;;;;10.63;5.70;;;;;;;;;;2612220;54;20439;-73
2023/12/16 06:56:46;;;;;;;12.13;5.63;;;;;;;;;;2612793;39;20818;-73
2023/12/16 06:59:13;;;;;;;10.30;4.80;;;;;;;;;;2608698;39;20792;-73
2023/12/16 07:01:39;;;;;;;9.53;5.50;;;;;;;;;;2611756;47;20420;-73
2023/12/16 07:04:05;;;;;;;11.90;5.37;;;;;;;;;;2612836;54;20539;-73
2023/12/16 07:06:31;;;;;;;11.10;5.00;;;;;;;;;;2611254;39;20782;-72
2023/12/16 07:08:57;;;;;;;6.10;5.23;;;;;;;;;;2610475;54;20423;-72
2023/12/16 07:11:23;;;;;;;10.73;6.20;;;;;;;;;;2611225;54;20471;-71
2023/12/16 07:13:49;;;;;;;8.03;5.50;;;;;;;;;;2610534;54;20424;-73
2023/12/16 07:16:16;;;;;;;13.03;6.77;;;;;;;;;;2610968;54;21002;-71
2023/12/16 07:18:42;;;;;;;9.63;6.20;;;;;;;;;;2610882;47;20460;-73
2023/12/16 07:21:08;;;;;;;12.57;5.90;;;;;;;;;;2612609;54;20426;-73
2023/12/16 07:23:34;;;;;;;10.37;5.23;;;;;;;;;;2612827;54;20426;-73
2023/12/16 07:26:01;;;;;;;10.93;5.77;;;;;;;;;;2612291;31;20889;-72
2023/12/16 07:28:27;;;;;;;10.07;5.40;;;;;;;;;;2611267;54;20428;-72
2023/12/16 07:30:53;;;;;;;10.13;6.70;;;;;;;;;;2609695;47;20434;-73
2023/12/16 07:33:19;;;;;;;16.17;6.13;;;;;;;;;;2609849;54;20409;-72
2023/12/16 07:35:45;;;;;;;10.20;6.80;;;;;;;;;;2610826;54;20508;-73
2023/12/16 07:38:11;;;;;;;17.60;7.27;;;;;;;;;;2613341;54;20925;-75
2023/12/16 07:40:37;;;;;;;17.70;7.50;;;;;;;;;;2612700;54;20422;-75
2023/12/16 07:43:03;;;;;;;10.17;5.50;;;;;;;;;;2611720;54;20442;-75
2023/12/16 07:45:30;;;;;;;7.90;5.27;;;;;;;;;;2608024;54;20967;-74
2023/12/16 07:47:56;;;;;;;11.30;5.80;;;;;;;;;;2609386;54;20413;-75
2023/12/16 07:50:22;;;;;;;22.57;8.03;;;;;;;;;;2611243;39;20800;-75
2023/12/16 07:52:48;;;;;;;12.83;6.97;;;;;;;;;;2613155;54;20430;-75
2023/12/16 07:55:14;;;;;;;13.37;6.30;;;;;;;;;;2613247;54;20535;-75
2023/12/16 07:57:40;;;;;;;12.30;6.13;;;;;;;;;;2611064;54;20444;-83
2023/12/16 08:00:08;;;;;;;24.27;6.93;;;;;;;;;;2613475;39;20833;-83
2023/12/16 08:02:35;;;;;;;13.17;6.20;;;;;;;;;;2612612;54;20451;-82
2023/12/16 08:05:02;;;;;;;9.20;6.30;;;;;;;;;;2614544;54;20421;-81
2023/12/16 08:07:28;;;;;;;9.80;6.60;;;;;;;;;;2613840;47;20487;-82
2023/12/16 08:09:54;;;;;;;11.10;5.53;;;;;;;;;;2613499;54;20399;-81
2023/12/16 08:12:21;;;;;;;9.63;5.40;;;;;;;;;;2614565;54;20449;-83
2023/12/16 08:14:47;;;;;;;17.67;6.67;;;;;;;;;;2613603;54;20437;-82
2023/12/16 08:17:13;;;;;;;9.97;5.00;;;;;;;;;;2612986;54;20472;-81
2023/12/16 08:19:39;;;;;;;11.20;7.60;;;;;;;;;;2613609;39;20824;-83
2023/12/16 08:22:05;;;;;;;14.93;7.00;;;;;;;;;;2613468;51;20551;-83
2023/12/16 08:24:32;;;;;;;12.60;5.67;;;;;;;;;;2613070;54;20536;-83
2023/12/16 08:26:58;;;;;;;19.47;6.57;;;;;;;;;;2612992;54;20441;-81
2023/12/16 08:29:24;;;;;;;15.37;7.10;;;;;;;;;;2614167;54;20419;-80
2023/12/16 08:31:50;;;;;;;9.70;5.20;;;;;;;;;;2614209;54;20437;-82
2023/12/16 08:34:16;;;;;;;11.80;4.50;;;;;;;;;;2616636;31;21008;-82
2023/12/16 08:36:43;;;;;;;17.03;6.60;;;;;;;;;;2614952;54;20427;-80
2023/12/16 08:39:09;;;;;;;12.07;6.50;;;;;;;;;;2614262;54;20429;-83
2023/12/16 08:41:35;;;;;;;13.67;5.63;;;;;;;;;;2614464;54;20407;-83
2023/12/16 08:44:03;;;;;;;11.63;5.60;;;;;;;;;;2614728;54;20418;-82
2023/12/16 08:46:29;;;;;;;14.50;5.30;;;;;;;;;;2614183;54;20444;-74
2023/12/16 08:48:55;;;;;;;11.87;5.10;;;;;;;;;;2613473;39;20502;-74
2023/12/16 08:51:22;;;;;;;14.60;6.57;;;;;;;;;;2613316;54;20415;-74
2023/12/16 08:53:48;;;;;;;14.70;6.30;;;;;;;;;;2613487;39;21093;-74
2023/12/16 08:56:17;;;;;;;20.70;6.47;;;;;;;;;;2612725;54;20962;-74
2023/12/16 08:58:43;;;;;;;16.83;6.17;;;;;;;;;;2612171;54;20448;-74
2023/12/16 09:01:09;;;;;;;10.27;4.80;;;;;;;;;;2611676;54;20400;-73
2023/12/16 09:03:36;;;;;;;7.30;4.50;;;;;;;;;;2612308;54;20426;-73
2023/12/16 09:06:02;;;;;;;14.90;5.80;;;;;;;;;;2612640;54;20424;-73
2023/12/16 09:08:28;;;;;;;14.73;6.23;;;;;;;;;;2613140;39;20556;-74
2023/12/16 09:10:54;;;;;;;11.00;5.40;;;;;;;;;;2612497;47;20421;-74
2023/12/16 09:13:20;;;;;;;18.37;6.00;;;;;;;;;;2611467;39;20582;-73
2023/12/16 09:15:46;;;;;;;14.13;6.00;;;;;;;;;;2613227;54;20426;-74
2023/12/16 09:18:12;;;;;;;19.13;6.27;;;;;;;;;;2614134;47;20466;-73
2023/12/16 09:20:38;;;;;;;13.20;5.30;;;;;;;;;;2613591;54;20508;-74
2023/12/16 09:23:04;;;;;;;12.43;5.37;;;;;;;;;;2613481;39;21061;-74
2023/12/16 09:25:30;;;;;;;14.60;6.00;;;;;;;;;;2612107;54;20506;-73
2023/12/16 09:27:56;;;;;;;15.33;6.40;;;;;;;;;;2613590;46;20464;-73
2023/12/16 09:30:22;;;;;;;8.90;5.43;;;;;;;;;;2612753;54;20477;-73
2023/12/16 09:32:48;;;;;;;8.97;5.23;;;;;;;;;;2611681;54;20451;-73
2023/12/16 09:35:14;;;;;;;18.23;5.43;;;;;;;;;;2613565;54;21024;-72
2023/12/16 09:37:40;;;;;;;8.27;4.47;;;;;;;;;;2612301;54;20430;-73
2023/12/16 09:40:07;;;;;;;18.20;5.83;;;;;;;;;;2612961;39;20498;-73
2023/12/16 09:42:36;;;;;;;6.23;4.23;;;;;;;;;;2613890;47;20437;-74
2023/12/16 09:45:02;;;;;;;7.50;5.13;;;;;;;;;;2613279;54;20430;-73
2023/12/16 09:47:28;;;;;;;7.10;4.83;;;;;;;;;;2613506;54;20597;-72
2023/12/16 09:49:59;;;;;;;15.10;5.47;;;;;;;;;;2613554;54;20397;-73
2023/12/16 09:52:26;;;;;;;9.87;6.27;;;;;;;;;;2613674;46;20585;-73
2023/12/16 09:54:52;;;;;;;8.90;5.10;;;;;;;;;;2613104;54;20485;-73
2023/12/16 09:57:19;;;;;;;10.03;4.83;;;;;;;;;;2610505;39;20855;-72
2023/12/16 09:59:46;;;;;;;8.57;6.17;;;;;;;;;;2611619;54;20458;-72
2023/12/16 10:02:32;;;;;;;15.93;5.30;;;;;;;;;;2612556;54;20433;-72
2023/12/16 10:04:59;;;;;;;10.17;5.37;;;;;;;;;;2612400;54;20505;-72
2023/12/16 10:07:25;;;;;;;7.33;4.90;;;;;;;;;;2612090;54;20426;-73
2023/12/16 10:09:51;;;;;;;12.07;5.90;;;;;;;;;;2612703;39;23003;-72
2023/12/16 10:12:19;;;;;;;13.50;6.17;;;;;;;;;;2612156;54;20435;-72
2023/12/16 10:14:46;;;;;;;20.13;5.97;;;;;;;;;;2612659;46;20439;-72
2023/12/16 10:17:13;;;;;;;6.73;4.93;;;;;;;;;;2611026;47;20449;-73
2023/12/16 10:19:39;;;;;;;5.60;4.37;;;;;;;;;;2612202;47;20410;-72
2023/12/16 10:22:05;;;;;;;14.60;4.70;;;;;;;;;;2611374;54;20887;-71
2023/12/16 10:24:31;;;;;;;19.53;5.90;;;;;;;;;;2612735;54;20466;-72
2023/12/16 10:26:57;;;;;;;8.47;4.50;;;;;;;;;;2612575;54;20400;-72
2023/12/16 10:29:23;;;;;;;9.23;5.20;;;;;;;;;;2611357;54;20607;-71
2023/12/16 10:31:50;;;;;;;8.80;4.80;;;;;;;;;;2612761;54;20817;-72
2023/12/16 10:34:17;;;;;;;10.13;4.73;;;;;;;;;;2612604;54;20422;-72
2023/12/16 10:36:43;;;;;;;12.73;7.23;;;;;;;;;;2610508;47;21312;-71
2023/12/16 10:39:09;;;;;;;7.37;4.50;;;;;;;;;;2612433;46;20414;-71
2023/12/16 10:41:35;;;;;;;5.70;4.80;;;;;;;;;;2612007;54;20410;-71
2023/12/16 10:44:01;;;;;;;11.07;5.67;;;;;;;;;;2612110;47;20428;-72
2023/12/16 10:46:28;;;;;;;8.40;5.43;;;;;;;;;;2613085;54;20405;-71
2023/12/16 10:48:57;;;;;;;13.70;6.03;;;;;;;;;;2610281;54;20473;-72
2023/12/16 10:51:23;;;;;;;13.00;4.90;;;;;;;;;;2610852;54;20415;-71
2023/12/16 10:53:53;;;;;;;12.67;6.10;;;;;;;;;;2611440;54;20433;-71
2023/12/16 10:56:28;;;;;;;8.40;4.67;;;;;;;;;;2611103;54;20413;-71
2023/12/16 10:59:27;;;;;;;16.87;6.53;;;;;;;;;;2610814;54;20484;-72
2023/12/16 11:01:57;;;;;;;16.57;4.90;;;;;;;;;;2611527;47;20443;-72
2023/12/16 11:04:28;;;;;;;21.03;5.20;;;;;;;;;;2609475;54;20413;-72
2023/12/16 11:07:04;;;;;;;11.27;6.73;;;;;;;;;;2611441;54;20428;-78
2023/12/16 11:09:31;;;;;;;11.03;6.80;;;;;;;;;;2612858;54;20496;-78
2023/12/16 11:12:00;;;;;;;11.73;5.83;;;;;;;;;;2612428;54;20431;-78
2023/12/16 11:14:27;;;;;;;10.33;5.67;;;;;;;;;;2613996;47;20519;-77
2023/12/16 11:16:53;;;;;;;12.57;6.70;;;;;;;;;;2613198;39;20896;-77
2023/12/16 11:19:20;;;;;;;11.63;5.20;;;;;;;;;;2613045;54;20438;-76
2023/12/16 11:21:46;;;;;;;8.60;4.70;;;;;;;;;;2610275;54;20475;-77
2023/12/16 11:24:12;;;;;;;9.23;4.70;;;;;;;;;;2612317;54;20434;-77
2023/12/16 11:26:38;;;;;;;14.23;5.53;;;;;;;;;;2611675;54;20434;-73
2023/12/16 11:29:05;;;;;;;10.23;5.93;;;;;;;;;;2612150;54;20500;-73
2023/12/16 11:31:31;;;;;;;14.23;5.43;;;;;;;;;;2612867;54;20538;-72
2023/12/16 11:33:57;;;;;;;12.67;5.70;;;;;;;;;;2612966;47;20433;-72
2023/12/16 11:36:42;;;;;;;15.23;4.73;;;;;;;;;;2612226;54;20425;-73
2023/12/16 11:39:28;;;;;;;8.43;4.63;;;;;;;;;;2611550;54;20496;-73
2023/12/16 11:41:54;;;;;;;21.30;6.80;;;;;;;;;;2612697;39;20811;-73
2023/12/16 11:44:20;;;;;;;9.53;4.70;;;;;;;;;;2611853;54;20546;-72
2023/12/16 11:46:46;;;;;;;7.57;5.20;;;;;;;;;;2610399;54;20504;-73
2023/12/16 11:49:16;;;;;;;7.30;5.00;;;;;;;;;;2611663;54;21430;-74
2023/12/16 11:51:42;;;;;;;12.23;5.77;;;;;;;;;;2612907;31;20892;-72
2023/12/16 11:54:09;;;;;;;6.83;3.30;;;;;;;;;;2611321;54;20425;-73
2023/12/16 11:56:36;;;;;;;22.63;5.67;;;;;;;;;;2612941;54;20423;-74
2023/12/16 11:59:02;;;;;;;11.53;6.00;;;;;;;;;;2611161;54;20425;-73
2023/12/16 12:01:30;;;;;;;5.97;4.73;;;;;;;;;;2612503;47;20426;-73
2023/12/16 12:03:56;;;;;;;17.23;5.27;;;;;;;;;;2611030;47;20580;-74
2023/12/16 12:06:23;;;;;;;8.83;4.10;;;;;;;;;;2612274;54;20424;-73
2023/12/16 12:08:49;;;;;;;16.30;6.10;;;;;;;;;;2612104;54;20435;-73
2023/12/16 12:11:16;;;;;;;10.60;4.70;;;;;;;;;;2611664;46;20428;-73
2023/12/16 12:13:43;;;;;;;8.10;4.57;;;;;;;;;;2611127;54;20423;-73
2023/12/16 12:16:11;;;;;;;6.97;5.10;;;;;;;;;;2611018;54;20410;-77
2023/12/16 12:18:37;;;;;;;13.33;5.70;;;;;;;;;;2611496;54;21042;-75
2023/12/16 12:21:03;;;;;;;11.73;5.57;;;;;;;;;;2610705;54;21111;-75
2023/12/16 12:23:29;;;;;;;15.17;5.13;;;;;;;;;;2610712;47;20434;-75
2023/12/16 12:25:55;;;;;;;10.13;5.70;;;;;;;;;;2611215;54;20662;-74
2023/12/16 12:28:22;;;;;;;16.00;5.10;;;;;;;;;;2609762;39;20772;-74
2023/12/16 12:30:48;;;;;;;13.67;4.50;;;;;;;;;;2609130;54;20476;-74
2023/12/16 12:33:14;;;;;;;10.20;5.40;;;;;;;;;;2607081;54;20429;-75
2023/12/16 12:35:40;;;;;;;12.07;4.90;;;;;;;;;;2609003;47;20445;-75
2023/12/16 12:38:06;;;;;;;8.30;4.60;;;;;;;;;;2612283;54;20421;-81
2023/12/16 12:40:32;;;;;;;11.83;5.20;;;;;;;;;;2611485;54;20523;-80
2023/12/16 12:42:58;;;;;;;12.40;6.00;;;;;;;;;;2613543;39;20911;-82
2023/12/16 12:45:37;;;;;;;7.53;4.83;;;;;;;;;;2612458;54;20429;-80
2023/12/16 12:48:10;;;;;;;18.93;5.47;;;;;;;;;;2612437;54;20452;-80
2023/12/16 12:50:37;;;;;;;15.43;5.10;;;;;;;;;;2613837;47;20558;-80
2023/12/16 12:53:15;;;;;;;11.93;4.33;;;;;;;;;;2613700;54;20426;-80
2023/12/16 12:55:43;;;;;;;7.40;5.43;;;;;;;;;;2614286;39;20894;-79
2023/12/16 12:58:09;;;;;;;11.53;5.17;;;;;;;;;;2614456;39;20814;-82
2023/12/16 13:00:36;;;;;;;6.80;4.77;;;;;;;;;;2614087;54;20414;-81
2023/12/16 13:03:02;;;;;;;17.03;5.40;;;;;;;;;;2613955;46;20519;-80
2023/12/16 13:05:28;;;;;;;12.83;3.97;;;;;;;;;;2614204;54;20416;-80
2023/12/16 13:07:54;;;;;;;7.40;4.60;;;;;;;;;;2613684;54;20418;-80
2023/12/16 13:10:20;;;;;;;5.77;3.93;;;;;;;;;;2614307;54;20477;-82
2023/12/16 13:12:46;;;;;;;14.60;6.23;;;;;;;;;;2615105;54;20455;-79
2023/12/16 13:15:12;;;;;;;11.10;4.80;;;;;;;;;;2613478;54;20423;-80
2023/12/16 13:17:38;;;;;;;10.10;5.27;;;;;;;;;;2614260;54;20473;-80
2023/12/16 13:20:04;;;;;;;11.70;5.37;;;;;;;;;;2613710;54;20429;-80
2023/12/16 13:22:34;;;;;;;13.47;6.07;;;;;;;;;;2613164;54;20432;-79
2023/12/16 13:25:00;;;;;;;11.40;6.00;;;;;;;;;;2613837;54;20430;-80
2023/12/16 13:27:26;;;;;;;9.90;4.33;;;;;;;;;;2613667;54;20425;-76
2023/12/16 13:29:53;;;;;;;11.50;5.53;;;;;;;;;;2612118;54;20432;-76
2023/12/16 13:32:20;;;;;;;12.00;4.80;;;;;;;;;;2611097;54;20519;-78
2023/12/16 13:34:46;;;;;;;15.50;5.40;;;;;;;;;;2611955;54;20406;-77
2023/12/16 13:37:12;;;;;;;13.50;6.57;;;;;;;;;;2610574;46;20525;-77
2023/12/16 13:39:39;;;;;;;20.67;5.53;;;;;;;;;;2613167;54;20413;-78
2023/12/16 13:42:06;;;;;;;9.70;5.20;;;;;;;;;;2614010;39;20723;-76
2023/12/16 13:44:32;;;;;;;13.33;6.40;;;;;;;;;;2612468;54;20971;-76
2023/12/16 13:46:58;;;;;;;11.30;5.33;;;;;;;;;;2612102;54;20450;-73
2023/12/16 13:49:24;;;;;;;17.60;6.50;;;;;;;;;;2611396;47;20438;-73
2023/12/16 13:51:50;;;;;;;16.07;6.13;;;;;;;;;;2610845;54;20860;-73
2023/12/16 13:54:16;;;;;;;11.53;6.47;;;;;;;;;;2611285;54;20421;-74
2023/12/16 13:56:42;;;;;;;21.47;7.43;;;;;;;;;;2610243;47;20446;-74
2023/12/16 13:59:08;;;;;;;13.63;5.83;;;;;;;;;;2612169;54;20420;-75
2023/12/16 14:01:34;;;;;;;9.67;6.03;;;;;;;;;;2611137;47;21692;-74
2023/12/16 14:04:00;;;;;;;13.53;4.93;;;;;;;;;;2612717;39;20795;-73
2023/12/16 14:06:26;;;;;;;16.03;7.57;;;;;;;;;;2609735;54;20762;-74
2023/12/16 14:08:52;;;;;;;13.63;7.77;;;;;;;;;;2610224;54;20421;-73
2023/12/16 14:11:18;;;;;;;15.20;5.40;;;;;;;;;;2612697;54;21062;-75
2023/12/16 14:13:44;;;;;;;9.90;5.87;;;;;;;;;;2612940;39;20937;-74
2023/12/16 14:16:10;;;;;;;8.73;4.30;;;;;;;;;;2612191;54;20431;-71
2023/12/16 14:18:36;;;;;;;17.00;8.20;;;;;;;;;;2610496;47;20464;-73
2023/12/16 14:21:02;;;;;;;11.07;4.27;;;;;;;;;;2612536;54;21096;-73
2023/12/16 14:23:28;;;;;;;15.27;5.27;;;;;;;;;;2611584;54;20462;-72
2023/12/16 14:25:54;;;;;;;8.50;6.30;;;;;;;;;;2611715;54;20437;-74
2023/12/16 14:28:21;;;;;;;13.70;7.07;;;;;;;;;;2612160;47;21027;-73
2023/12/16 14:30:47;;;;;;;16.93;6.60;;;;;;;;;;2613067;39;20806;-72